Time;durP1;ratioP1;P1;durP2;ratioP2;P2;SDS_P1;SDS_P2;PMS_P1;PMS_P2;Temp;Humidity;BMP_temperature;BMP_pressure;BME280_temperature;BME280_humidity;BME280_pressure;Samples;Min_cycle;Max_cycle;Signal;HPM_P1;HPM_P2
2022/08/03 00:01:52;;;;;;;2.13;1.00;;;14.30;99.90;;;;;;5085548;28;20473;-75
2022/08/03 00:04:20;;;;;;;3.60;1.20;;;14.50;99.90;;;;;;5086520;28;20730;-75
2022/08/03 00:06:47;;;;;;;1.83;1.00;;;14.50;99.90;;;;;;5085786;28;20404;-75
2022/08/03 00:09:14;;;;;;;1.88;1.00;;;14.70;99.90;;;;;;5088180;28;20377;-75
2022/08/03 00:11:41;;;;;;;1.98;0.90;;;14.80;99.90;;;;;;5076811;28;20755;-75
2022/08/03 00:14:09;;;;;;;2.30;0.85;;;15.00;99.90;;;;;;5058695;28;20843;-75
2022/08/03 00:16:36;;;;;;;3.35;1.05;;;15.20;99.90;;;;;;5072860;28;20394;-74
2022/08/03 00:19:03;;;;;;;2.13;0.90;;;15.30;99.90;;;;;;5072327;28;20838;-75
2022/08/03 00:21:31;;;;;;;3.10;0.90;;;15.40;99.90;;;;;;5073177;28;20846;-75
2022/08/03 00:23:58;;;;;;;1.10;0.80;;;15.60;99.90;;;;;;5073219;28;20381;-75
2022/08/03 00:26:25;;;;;;;1.43;0.80;;;15.80;99.50;;;;;;5072283;28;20739;-75
2022/08/03 00:28:52;;;;;;;4.07;0.80;;;15.90;98.80;;;;;;5072053;28;20423;-75
2022/08/03 00:31:19;;;;;;;1.65;0.90;;;15.90;98.60;;;;;;5071950;28;20446;-75
2022/08/03 00:33:46;;;;;;;2.90;1.00;;;15.90;98.80;;;;;;5071711;28;20484;-74
2022/08/03 00:36:13;;;;;;;3.05;1.00;;;15.90;98.50;;;;;;5071233;28;20454;-76
2022/08/03 00:38:40;;;;;;;2.00;1.00;;;15.80;98.60;;;;;;5071830;28;20862;-75
2022/08/03 00:41:08;;;;;;;3.00;0.80;;;15.90;98.80;;;;;;5071670;28;20912;-74
2022/08/03 00:43:35;;;;;;;2.65;0.95;;;16.10;98.60;;;;;;5071868;28;20373;-75
2022/08/03 00:46:02;;;;;;;2.33;0.98;;;16.40;98.00;;;;;;5071577;28;20381;-75
2022/08/03 00:48:29;;;;;;;2.35;0.80;;;16.50;97.90;;;;;;5104183;28;20382;-75
2022/08/03 00:50:57;;;;;;;1.00;0.70;;;16.60;97.70;;;;;;5071605;28;20916;-76
2022/08/03 00:53:24;;;;;;;2.08;1.00;;;16.90;97.90;;;;;;5071527;28;20366;-75
2022/08/03 00:55:52;;;;;;;1.95;0.80;;;17.20;97.30;;;;;;5071490;28;20794;-75
2022/08/03 00:58:19;;;;;;;2.95;0.80;;;17.50;96.30;;;;;;5071292;28;20432;-75
2022/08/03 01:00:46;;;;;;;1.20;0.80;;;17.60;96.40;;;;;;5061650;28;20403;-75
2022/08/03 01:03:13;;;;;;;0.82;0.80;;;17.70;95.80;;;;;;5053598;28;20368;-75
2022/08/03 01:06:05;;;;;;;2.13;0.88;;;17.90;95.60;;;;;;5071199;28;20382;-76
2022/08/03 01:09:00;;;;;;;1.90;0.77;;;18.00;95.20;;;;;;5069739;28;20374;-76
2022/08/03 01:11:46;;;;;;;1.47;0.90;;;18.00;95.20;;;;;;5071212;28;20452;-76
2022/08/03 01:14:18;;;;;;;1.10;0.83;;;18.00;94.80;;;;;;5055635;28;20412;-75
2022/08/03 01:17:05;;;;;;;2.23;0.80;;;18.20;94.60;;;;;;5070952;28;20414;-76
2022/08/03 01:19:56;;;;;;;3.92;0.93;;;18.30;94.60;;;;;;5070603;28;20466;-76
2022/08/03 01:22:45;;;;;;;1.40;0.60;;;18.50;94.50;;;;;;5070829;28;20378;-76
2022/08/03 01:25:23;;;;;;;2.50;0.90;;;18.70;93.70;;;;;;5070590;28;20386;-75
2022/08/03 01:28:12;;;;;;;1.83;0.90;;;19.00;93.60;;;;;;5071183;28;20392;-76
2022/08/03 01:30:43;;;;;;;2.67;0.70;;;19.30;92.90;;;;;;5070707;28;20378;-75
2022/08/03 01:33:19;;;;;;;5.57;0.80;;;19.40;92.30;;;;;;5070767;28;20393;-76
2022/08/03 01:36:08;;;;;;;1.27;0.80;;;19.60;91.90;;;;;;5070767;28;20424;-76
2022/08/03 01:38:42;;;;;;;3.55;0.80;;;19.60;92.10;;;;;;5073824;28;20381;-76
2022/08/03 01:41:14;;;;;;;1.42;0.77;;;19.70;92.10;;;;;;5075632;28;20373;-75
2022/08/03 01:43:47;;;;;;;1.50;0.70;;;19.90;92.20;;;;;;5071913;28;20471;-75
2022/08/03 01:46:15;;;;;;;2.17;0.85;;;20.10;91.10;;;;;;5070547;28;20374;-75
2022/08/03 01:48:45;;;;;;;2.20;0.70;;;20.40;90.40;;;;;;5070390;28;20390;-76
2022/08/03 01:51:15;;;;;;;1.55;0.70;;;20.50;89.30;;;;;;5070631;28;20516;-77
2022/08/03 01:53:42;;;;;;;1.25;0.70;;;20.60;89.80;;;;;;5070728;28;20370;-77
2022/08/03 01:56:11;;;;;;;1.92;0.70;;;20.70;88.60;;;;;;5056446;28;20419;-77
2022/08/03 01:58:42;;;;;;;2.78;0.90;;;20.90;88.30;;;;;;5056937;28;20370;-76
2022/08/03 02:01:12;;;;;;;4.78;0.70;;;21.20;86.60;;;;;;5068193;28;20382;-77
2022/08/03 02:03:42;;;;;;;2.42;0.90;;;21.30;85.70;;;;;;5070142;28;20894;-77
2022/08/03 02:06:13;;;;;;;2.83;0.70;;;21.20;87.10;;;;;;5070436;28;20406;-77
2022/08/03 02:08:45;;;;;;;3.67;0.98;;;21.20;87.10;;;;;;5070247;28;20366;-78
2022/08/03 02:11:16;;;;;;;3.30;0.90;;;21.20;87.60;;;;;;5070222;28;20406;-76
2022/08/03 02:13:45;;;;;;;4.60;0.60;;;21.40;88.80;;;;;;5055906;28;20383;-76
2022/08/03 02:16:13;;;;;;;3.50;0.50;;;21.70;81.20;;;;;;5070073;28;20374;-77
2022/08/03 02:18:41;;;;;;;2.08;0.80;;;21.70;77.50;;;;;;5069943;28;20794;-74
2022/08/03 02:21:11;;;;;;;2.35;0.70;;;21.70;79.10;;;;;;5071233;28;20397;-75
2022/08/03 02:23:39;;;;;;;4.43;0.60;;;21.80;78.80;;;;;;5070393;28;20370;-78
2022/08/03 02:26:13;;;;;;;1.65;0.60;;;21.90;77.30;;;;;;5055957;28;20877;-77
2022/08/03 02:28:45;;;;;;;2.15;0.75;;;21.80;77.10;;;;;;5071281;28;20420;-77
2022/08/03 02:31:24;;;;;;;1.10;0.65;;;21.90;76.80;;;;;;5073375;28;20394;-77
2022/08/03 02:33:55;;;;;;;1.55;0.60;;;21.80;77.20;;;;;;5070338;28;20896;-77
2022/08/03 02:36:27;;;;;;;2.05;0.70;;;21.90;78.20;;;;;;5071335;28;20390;-78
2022/08/03 02:38:59;;;;;;;1.57;0.70;;;21.90;78.20;;;;;;5070273;28;20366;-78
2022/08/03 02:41:41;;;;;;;1.67;0.90;;;21.90;78.40;;;;;;5071431;28;20386;-80
2022/08/03 02:44:11;;;;;;;1.23;0.70;;;22.00;79.10;;;;;;5063052;28;20362;-80
2022/08/03 02:46:43;;;;;;;1.55;0.60;;;22.10;78.50;;;;;;5079937;28;20959;-77
2022/08/03 02:49:13;;;;;;;1.48;0.60;;;22.20;77.60;;;;;;5068951;28;20399;-77
2022/08/03 02:51:42;;;;;;;1.67;0.65;;;22.20;77.50;;;;;;5076227;28;20915;-80
2022/08/03 02:54:11;;;;;;;1.90;0.68;;;22.40;77.00;;;;;;5070261;28;20789;-78
2022/08/03 02:56:39;;;;;;;2.00;0.60;;;22.50;75.40;;;;;;5071357;28;20491;-79
2022/08/03 02:59:07;;;;;;;2.90;0.70;;;22.50;74.80;;;;;;5073002;28;20473;-79
2022/08/03 03:01:34;;;;;;;3.58;0.70;;;22.60;76.40;;;;;;5076244;28;20382;-79
2022/08/03 03:04:02;;;;;;;1.40;0.70;;;22.60;74.30;;;;;;5073945;28;20460;-78
2022/08/03 03:06:30;;;;;;;1.88;0.63;;;22.60;74.70;;;;;;5078431;28;20389;-79
2022/08/03 03:08:59;;;;;;;2.97;0.70;;;22.70;75.00;;;;;;5082044;28;20388;-79
2022/08/03 03:11:28;;;;;;;1.42;0.75;;;22.80;74.00;;;;;;5083140;28;20493;-76
2022/08/03 03:13:56;;;;;;;1.00;0.52;;;22.90;74.80;;;;;;5055753;28;20811;-79
2022/08/03 03:16:27;;;;;;;1.00;0.70;;;23.00;74.00;;;;;;5077132;28;20445;-81
